createdAt,value
2023-01-29T00:01:43.497Z,49.70
2023-01-29T00:04:10.713Z,66.63
2023-01-29T00:06:37.909Z,59.60
2023-01-29T00:09:11.295Z,56.95
2023-01-29T00:11:38.441Z,65.28
2023-01-29T00:14:12.479Z,74.78
2023-01-29T00:16:46.252Z,72.35
2023-01-29T00:19:20.361Z,69.45
2023-01-29T00:21:47.497Z,57.78
2023-01-29T00:24:14.709Z,58.75
2023-01-29T00:26:49.363Z,62.53
2023-01-29T00:29:17.888Z,56.42
2023-01-29T00:31:45.587Z,66.10
2023-01-29T00:34:19.324Z,50.33
2023-01-29T00:36:46.490Z,77.15
2023-01-29T00:39:20.434Z,65.93
2023-01-29T00:42:06.045Z,69.55
2023-01-29T00:44:58.315Z,63.90
2023-01-29T00:47:40.325Z,74.93
2023-01-29T00:50:10.040Z,72.68
2023-01-29T00:52:44.336Z,52.72
2023-01-29T00:55:11.593Z,46.55
2023-01-29T00:57:45.341Z,52.38
2023-01-29T01:00:14.556Z,41.05
2023-01-29T01:03:07.493Z,64.13
2023-01-29T01:05:34.878Z,52.03
2023-01-29T01:08:01.987Z,55.20
2023-01-29T01:10:37.321Z,57.00
2023-01-29T01:13:05.949Z,58.33
2023-01-29T01:15:43.343Z,47.83
2023-01-29T01:18:17.355Z,42.53
2023-01-29T01:20:51.486Z,49.15
2023-01-29T01:23:21.604Z,47.47
2023-01-29T01:25:48.691Z,52.97
2023-01-29T01:28:22.326Z,48.38
2023-01-29T01:30:49.473Z,51.50
2023-01-29T01:33:23.491Z,38.95
2023-01-29T01:35:50.612Z,73.07
2023-01-29T01:38:17.707Z,64.07
2023-01-29T01:40:52.315Z,75.70
2023-01-29T01:43:19.423Z,69.95
2023-01-29T01:45:53.544Z,73.43
2023-01-29T01:48:22.820Z,65.72
2023-01-29T01:51:01.329Z,94.45
2023-01-29T01:53:38.728Z,73.90
2023-01-29T01:56:15.324Z,87.45
2023-01-29T01:58:50.558Z,79.53
2023-01-29T02:01:25.897Z,70.72
2023-01-29T02:04:15.649Z,68.40
2023-01-29T02:07:08.535Z,64.38
2023-01-29T02:09:37.813Z,72.43
2023-01-29T02:12:29.333Z,76.82
2023-01-29T02:14:56.511Z,52.90
2023-01-29T02:17:36.361Z,66.72
2023-01-29T02:20:08.671Z,85.10
2023-01-29T02:23:03.647Z,57.53
2023-01-29T02:25:33.921Z,70.07
2023-01-29T02:28:22.341Z,61.80
2023-01-29T02:30:58.624Z,78.15
2023-01-29T02:33:32.513Z,54.28
2023-01-29T02:36:32.105Z,70.35
2023-01-29T02:39:20.486Z,60.00
2023-01-29T02:42:06.325Z,76.13
2023-01-29T02:44:45.500Z,64.47
2023-01-29T02:47:23.901Z,55.97
2023-01-29T02:50:03.496Z,52.45
2023-01-29T02:52:36.637Z,54.28
2023-01-29T02:55:16.366Z,57.35
2023-01-29T02:57:45.136Z,42.15
2023-01-29T03:00:27.482Z,59.55
2023-01-29T03:02:59.130Z,66.13
2023-01-29T03:05:38.341Z,50.95
2023-01-29T03:08:16.324Z,55.83
2023-01-29T03:10:46.602Z,59.70
2023-01-29T03:13:23.383Z,63.45
2023-01-29T03:16:01.335Z,48.35
2023-01-29T03:18:47.343Z,63.08
2023-01-29T03:21:42.321Z,39.33
2023-01-29T03:24:36.353Z,41.95
2023-01-29T03:27:30.339Z,45.58
2023-01-29T03:30:24.494Z,39.03
2023-01-29T03:32:52.419Z,59.20
2023-01-29T03:35:40.548Z,48.22
2023-01-29T03:38:11.795Z,50.05
2023-01-29T03:40:51.347Z,43.65
2023-01-29T03:43:34.338Z,41.38
2023-01-29T03:46:11.471Z,43.25
2023-01-29T03:48:49.018Z,60.40
2023-01-29T03:51:32.508Z,58.20
2023-01-29T03:53:59.588Z,50.55
2023-01-29T03:56:44.384Z,45.08
2023-01-29T03:59:19.437Z,52.75
2023-01-29T04:01:55.512Z,51.63
2023-01-29T04:04:28.759Z,50.75
2023-01-29T04:07:05.351Z,54.22
2023-01-29T04:09:41.352Z,48.65
2023-01-29T04:12:09.747Z,69.38
2023-01-29T04:14:44.362Z,47.28
2023-01-29T04:17:39.343Z,60.97
2023-01-29T04:20:13.487Z,55.53
2023-01-29T04:22:43.292Z,53.42
2023-01-29T04:25:22.651Z,69.78
2023-01-29T04:28:06.466Z,51.10
2023-01-29T04:30:50.427Z,57.17
2023-01-29T04:33:23.708Z,55.05
2023-01-29T04:36:06.517Z,66.10
2023-01-29T04:38:33.638Z,59.47
2023-01-29T04:41:15.417Z,55.38
2023-01-29T04:43:46.294Z,57.30
2023-01-29T04:46:41.347Z,63.08
2023-01-29T04:49:37.356Z,59.22
2023-01-29T04:52:10.276Z,52.72
2023-01-29T04:54:54.429Z,65.63
2023-01-29T04:57:25.560Z,71.68
2023-01-29T05:00:10.400Z,72.80
2023-01-29T05:02:40.055Z,56.55
2023-01-29T05:05:15.385Z,56.10
2023-01-29T05:07:43.580Z,57.28
2023-01-29T05:10:11.489Z,75.15
2023-01-29T05:12:45.353Z,59.97
2023-01-29T05:15:23.854Z,72.57
2023-01-29T05:18:00.464Z,76.43
2023-01-29T05:20:34.515Z,59.05
2023-01-29T05:23:08.551Z,76.10
2023-01-29T05:25:42.415Z,56.63
2023-01-29T05:28:23.379Z,60.03
2023-01-29T05:30:51.891Z,73.80
2023-01-29T05:33:27.406Z,89.85
2023-01-29T05:35:55.294Z,73.85
2023-01-29T05:38:22.920Z,52.83
2023-01-29T05:43:33.384Z,65.95
2023-01-29T05:46:07.390Z,72.05
2023-01-29T05:48:41.386Z,74.05
2023-01-29T05:51:08.484Z,78.75
2023-01-29T05:53:35.571Z,81.13
2023-01-29T05:56:10.521Z,71.90
2023-01-29T05:58:38.023Z,69.47
2023-01-29T06:03:38.380Z,54.83
2023-01-29T06:06:05.576Z,61.20
2023-01-29T06:08:39.387Z,63.95
2023-01-29T06:11:08.411Z,52.28
2023-01-29T06:13:42.429Z,65.95
2023-01-29T06:16:10.153Z,68.25
2023-01-29T06:18:50.562Z,74.03
2023-01-29T06:21:19.933Z,74.05
2023-01-29T06:23:47.229Z,57.60
2023-01-29T06:26:21.425Z,60.65
2023-01-29T06:28:51.932Z,58.88
2023-01-29T06:31:37.762Z,56.67
2023-01-29T06:34:06.569Z,61.70
2023-01-29T06:39:14.529Z,51.25
2023-01-29T06:41:41.657Z,60.53
2023-01-29T06:44:08.748Z,62.47
2023-01-29T06:46:43.408Z,52.53
2023-01-29T06:49:10.513Z,51.38
2023-01-29T06:51:44.554Z,56.28
2023-01-29T06:54:11.715Z,51.97
2023-01-29T06:56:38.787Z,56.67
2023-01-29T06:59:12.384Z,53.25
2023-01-29T07:01:44.360Z,45.78
2023-01-29T07:04:18.556Z,36.72
2023-01-29T07:06:45.669Z,49.03
2023-01-29T07:09:16.105Z,58.97
2023-01-29T07:11:49.392Z,50.40
2023-01-29T07:14:16.561Z,37.65
2023-01-29T07:16:50.558Z,45.20
2023-01-29T07:19:24.485Z,45.42
2023-01-29T07:22:12.552Z,64.78
2023-01-29T07:24:46.557Z,36.22
2023-01-29T07:27:20.405Z,55.13
2023-01-29T07:29:47.483Z,59.63
2023-01-29T07:32:14.626Z,55.30
2023-01-29T07:34:48.446Z,48.47
2023-01-29T07:37:15.544Z,57.63
2023-01-29T07:39:42.675Z,35.90
2023-01-29T07:42:16.391Z,49.97
2023-01-29T07:44:43.636Z,62.58
2023-01-29T07:47:10.725Z,39.05
2023-01-29T07:49:44.415Z,43.85
2023-01-29T07:52:11.483Z,53.28
2023-01-29T07:54:45.604Z,48.60
2023-01-29T07:57:12.732Z,52.47
2023-01-29T07:59:39.814Z,47.47
2023-01-29T08:02:13.485Z,42.75
2023-01-29T08:04:47.406Z,35.50
2023-01-29T08:07:21.399Z,38.35
2023-01-29T08:09:55.564Z,31.27
2023-01-29T08:12:22.759Z,40.67
2023-01-29T08:14:50.545Z,40.20
2023-01-29T08:17:24.418Z,32.78
2023-01-29T08:19:58.308Z,29.38
2023-01-29T08:22:32.590Z,41.58
2023-01-29T08:25:08.182Z,20.23
2023-01-29T08:27:42.415Z,49.15
2023-01-29T08:30:10.404Z,34.33
2023-01-29T08:32:37.537Z,26.40
2023-01-29T08:35:11.430Z,39.47
2023-01-29T08:37:38.552Z,23.60
2023-01-29T08:40:12.700Z,21.20
2023-01-29T08:42:41.407Z,36.78
2023-01-29T08:45:08.889Z,27.02
2023-01-29T08:47:42.572Z,28.83
2023-01-29T08:50:09.983Z,30.92
2023-01-29T08:52:37.108Z,33.40
2023-01-29T08:55:10.422Z,28.70
2023-01-29T08:57:38.124Z,34.65
2023-01-29T09:00:12.453Z,26.00
2023-01-29T09:02:39.661Z,43.08
2023-01-29T09:05:07.235Z,30.45
2023-01-29T09:07:41.421Z,26.75
2023-01-29T09:10:08.804Z,29.70
2023-01-29T09:12:42.429Z,32.75
2023-01-29T09:15:09.881Z,28.10
2023-01-29T09:20:24.412Z,24.60
2023-01-29T09:23:00.452Z,26.13
2023-01-29T09:25:27.682Z,22.45
2023-01-29T09:27:55.043Z,14.80
2023-01-29T09:30:28.728Z,28.42
2023-01-29T09:32:56.069Z,21.92
2023-01-29T09:35:30.431Z,23.55
2023-01-29T09:37:57.602Z,25.58
2023-01-29T09:40:38.762Z,23.27
2023-01-29T09:43:14.091Z,20.05
2023-01-29T09:45:52.459Z,25.00
2023-01-29T09:48:27.708Z,21.38
2023-01-29T09:50:56.002Z,24.63
2023-01-29T09:53:50.433Z,13.02
2023-01-29T09:56:21.126Z,19.50
2023-01-29T09:58:54.586Z,23.63
2023-01-29T10:01:40.659Z,25.52
2023-01-29T10:04:33.450Z,23.92
2023-01-29T10:07:00.541Z,15.20
2023-01-29T10:09:51.429Z,21.23
2023-01-29T10:12:23.468Z,16.65
2023-01-29T10:15:00.435Z,32.42
2023-01-29T10:17:45.602Z,17.38
2023-01-29T10:20:41.597Z,15.32
2023-01-29T10:23:26.876Z,13.15
2023-01-29T10:26:00.448Z,21.67
2023-01-29T10:28:30.382Z,23.05
2023-01-29T10:31:17.702Z,22.77
2023-01-29T10:33:54.505Z,12.02
2023-01-29T10:36:39.590Z,19.98
2023-01-29T10:39:06.778Z,21.20
2023-01-29T10:41:48.439Z,26.40
2023-01-29T10:44:28.553Z,20.35
2023-01-29T10:47:01.596Z,18.23
2023-01-29T10:49:41.436Z,20.90
2023-01-29T10:52:20.135Z,16.70
2023-01-29T10:55:02.612Z,16.17
2023-01-29T10:57:32.431Z,27.65
2023-01-29T11:00:21.660Z,15.35
2023-01-29T11:02:50.237Z,21.33
2023-01-29T11:05:30.446Z,27.55
2023-01-29T11:08:03.656Z,32.78
2023-01-29T11:10:39.460Z,13.95
2023-01-29T11:13:06.760Z,13.75
2023-01-29T11:15:41.463Z,14.85
2023-01-29T11:18:17.126Z,14.15
2023-01-29T11:21:07.637Z,10.65
2023-01-29T11:23:34.855Z,17.67
2023-01-29T11:26:04.735Z,12.98
2023-01-29T11:28:52.454Z,19.33
2023-01-29T11:31:37.590Z,9.63
2023-01-29T11:34:21.425Z,16.98
2023-01-29T11:37:03.460Z,19.50
2023-01-29T11:39:31.711Z,17.83
2023-01-29T11:42:10.628Z,22.17
2023-01-29T11:44:40.729Z,22.42
2023-01-29T11:50:07.620Z,21.77
2023-01-29T11:52:43.531Z,17.10
2023-01-29T11:55:25.608Z,17.35
2023-01-29T11:57:55.153Z,8.57
2023-01-29T12:00:31.613Z,9.70
2023-01-29T12:03:05.585Z,13.55
2023-01-29T12:05:39.578Z,16.85
2023-01-29T12:08:16.907Z,12.70
2023-01-29T12:10:50.569Z,16.08
2023-01-29T12:13:28.109Z,20.48
2023-01-29T12:16:20.610Z,18.15
2023-01-29T12:19:11.074Z,21.98
2023-01-29T12:21:50.605Z,20.48
2023-01-29T12:24:30.245Z,24.33
2023-01-29T12:27:15.722Z,14.25
2023-01-29T12:30:01.130Z,22.85
2023-01-29T12:32:39.586Z,15.30
2023-01-29T12:35:22.045Z,19.77
2023-01-29T12:38:04.535Z,18.50
2023-01-29T12:40:39.116Z,10.80
2023-01-29T12:43:19.930Z,15.10
2023-01-29T12:45:48.822Z,10.13
2023-01-29T12:48:35.535Z,10.23
2023-01-29T12:51:21.084Z,19.40
2023-01-29T12:54:00.722Z,15.05
2023-01-29T12:56:33.542Z,15.93
2023-01-29T12:59:02.413Z,13.98
2023-01-29T13:01:41.596Z,13.77
2023-01-29T13:04:35.129Z,15.43
2023-01-29T13:07:12.100Z,15.82
2023-01-29T13:09:41.050Z,8.93
2023-01-29T13:12:12.124Z,19.77
2023-01-29T13:14:48.952Z,19.13
2023-01-29T13:17:22.447Z,11.30
2023-01-29T13:19:54.754Z,21.52
2023-01-29T13:22:34.591Z,13.00
2023-01-29T13:25:05.558Z,16.45
2023-01-29T13:27:34.362Z,13.27
2023-01-29T13:30:01.752Z,18.55
2023-01-29T13:32:30.709Z,18.77
2023-01-29T13:34:59.008Z,15.38
2023-01-29T13:37:28.576Z,12.20
2023-01-29T13:39:56.715Z,15.98
2023-01-29T13:43:00.366Z,13.38
2023-01-29T13:45:34.988Z,20.27
2023-01-29T13:48:20.656Z,18.77
2023-01-29T13:50:48.359Z,19.05
2023-01-29T13:53:25.900Z,19.27
2023-01-29T13:55:53.153Z,28.27
2023-01-29T13:58:32.266Z,15.93
2023-01-29T14:01:01.465Z,21.83
2023-01-29T14:03:39.940Z,24.52
2023-01-29T14:06:36.023Z,15.65
2023-01-29T14:09:03.229Z,21.90
2023-01-29T14:11:34.873Z,19.85
2023-01-29T14:14:02.155Z,19.05
2023-01-29T14:16:34.908Z,23.58
2023-01-29T14:19:03.232Z,31.45
2023-01-29T14:21:32.032Z,31.55
2023-01-29T14:24:10.264Z,29.13
2023-01-29T14:26:43.827Z,20.23
2023-01-29T14:29:25.487Z,26.30
2023-01-29T14:32:08.848Z,20.98
2023-01-29T14:34:37.413Z,37.72
2023-01-29T14:37:19.041Z,27.67
2023-01-29T14:39:48.412Z,24.02
2023-01-29T14:42:35.746Z,25.05
2023-01-29T14:45:21.681Z,28.58
2023-01-29T14:47:48.980Z,27.40
2023-01-29T14:50:35.002Z,32.85
2023-01-29T14:53:04.157Z,26.17
2023-01-29T14:55:53.131Z,21.50
2023-01-29T14:58:24.551Z,28.15
2023-01-29T15:03:34.564Z,25.23
2023-01-29T15:06:08.524Z,32.20
2023-01-29T15:08:48.563Z,40.40
2023-01-29T15:11:40.517Z,28.60
2023-01-29T15:14:13.637Z,31.85
2023-01-29T15:16:56.658Z,38.13
2023-01-29T15:19:33.048Z,26.15
2023-01-29T15:22:19.499Z,22.00
2023-01-29T15:24:48.278Z,29.58
2023-01-29T15:27:26.658Z,39.58
2023-01-29T15:29:57.425Z,32.45
2023-01-29T15:32:36.534Z,25.65
2023-01-29T15:35:15.035Z,27.70
2023-01-29T15:37:42.519Z,51.42
2023-01-29T15:40:22.816Z,41.03
2023-01-29T15:42:49.947Z,30.73
2023-01-29T15:45:32.759Z,41.78
2023-01-29T15:48:20.678Z,27.83
2023-01-29T15:50:48.503Z,27.10
2023-01-29T15:53:29.655Z,35.78
2023-01-29T15:55:59.986Z,36.15
2023-01-29T15:58:38.574Z,33.33
2023-01-29T16:01:06.372Z,46.40
2023-01-29T16:03:34.350Z,44.88
2023-01-29T16:06:08.633Z,31.05
2023-01-29T16:08:36.407Z,38.67
2023-01-29T16:11:12.736Z,44.17
2023-01-29T16:13:43.376Z,36.92
2023-01-29T16:16:22.619Z,49.97
2023-01-29T16:19:00.857Z,36.45
2023-01-29T16:21:34.661Z,39.90
2023-01-29T16:24:09.689Z,37.50
2023-01-29T16:26:43.504Z,34.45
2023-01-29T16:29:19.722Z,37.78
2023-01-29T16:31:48.017Z,38.00
2023-01-29T16:34:33.529Z,53.58
2023-01-29T16:37:01.686Z,43.88
2023-01-29T16:39:39.676Z,44.53
2023-01-29T16:42:13.416Z,49.65
2023-01-29T16:44:47.616Z,43.70
2023-01-29T16:47:16.796Z,37.03
2023-01-29T16:49:44.889Z,46.95
2023-01-29T16:52:23.636Z,54.95
2023-01-29T16:54:50.832Z,39.85
2023-01-29T16:57:26.734Z,34.22
2023-01-29T17:00:01.581Z,48.03
2023-01-29T17:02:39.614Z,36.05
2023-01-29T17:05:10.979Z,43.42
2023-01-29T17:07:45.587Z,40.92
2023-01-29T17:10:16.755Z,46.22
2023-01-29T17:12:55.658Z,40.83
2023-01-29T17:15:32.045Z,39.58
2023-01-29T17:18:05.767Z,28.27
2023-01-29T17:20:33.031Z,36.05
2023-01-29T17:23:00.239Z,41.28
2023-01-29T17:25:34.685Z,34.13
2023-01-29T17:28:02.384Z,35.60
2023-01-29T17:30:37.780Z,42.50
2023-01-29T17:33:18.293Z,37.47
2023-01-29T17:35:52.859Z,33.00
2023-01-29T17:38:26.099Z,27.63
2023-01-29T17:41:03.624Z,43.22
2023-01-29T17:43:37.548Z,32.42
2023-01-29T17:46:04.900Z,33.10
2023-01-29T17:48:38.698Z,27.52
2023-01-29T17:51:06.034Z,34.80
2023-01-29T17:53:45.339Z,43.58
2023-01-29T17:56:24.633Z,32.45
2023-01-29T17:58:51.931Z,26.55
2023-01-29T18:01:25.836Z,33.75
2023-01-29T18:03:59.632Z,29.25
2023-01-29T18:06:35.664Z,40.25
2023-01-29T18:09:09.573Z,28.45
2023-01-29T18:11:36.709Z,46.00
2023-01-29T18:14:13.591Z,29.25
2023-01-29T18:16:42.276Z,45.83
2023-01-29T18:19:22.718Z,23.40
2023-01-29T18:21:50.886Z,36.88
2023-01-29T18:24:20.359Z,30.40
2023-01-29T18:26:54.607Z,30.13
2023-01-29T18:29:21.761Z,33.42
2023-01-29T18:31:56.667Z,32.35
2023-01-29T18:34:24.018Z,42.85
2023-01-29T18:36:57.658Z,36.35
2023-01-29T18:39:25.313Z,34.90
2023-01-29T18:44:25.634Z,27.05
2023-01-29T18:46:52.875Z,36.10
2023-01-29T18:49:26.648Z,48.33
2023-01-29T18:51:54.192Z,47.25
2023-01-29T18:57:13.435Z,41.30
2023-01-29T18:59:42.839Z,46.03
2023-01-29T19:07:45.568Z,43.25
2023-01-29T19:10:12.976Z,39.63
2023-01-29T19:12:48.653Z,46.17
2023-01-29T19:15:20.517Z,47.33
2023-01-29T19:17:54.789Z,42.63
2023-01-29T19:20:21.983Z,43.88
2023-01-29T19:22:49.201Z,45.03
2023-01-29T19:25:23.764Z,37.25
2023-01-29T19:27:50.955Z,41.60
2023-01-29T19:30:18.287Z,42.28
2023-01-29T19:32:51.743Z,57.78
2023-01-29T19:35:19.199Z,57.53
2023-01-29T19:37:53.857Z,54.90
2023-01-29T19:40:21.099Z,42.50
2023-01-29T19:42:48.488Z,39.53
2023-01-29T19:45:37.344Z,39.88
2023-01-29T19:48:09.937Z,45.83
2023-01-29T19:50:43.712Z,47.80
2023-01-29T19:53:11.085Z,49.00
2023-01-29T19:55:44.702Z,42.15
2023-01-29T19:58:11.818Z,40.65
2023-01-29T20:00:45.705Z,58.92
2023-01-29T20:03:12.786Z,40.90
2023-01-29T20:05:40.395Z,16.98
2023-01-29T20:08:13.635Z,43.85
2023-01-29T20:10:40.727Z,32.03
2023-01-29T20:13:14.951Z,25.30
2023-01-29T20:15:49.146Z,23.15
2023-01-29T20:18:23.678Z,42.85
2023-01-29T20:20:53.051Z,26.77
2023-01-29T20:23:37.219Z,20.02
2023-01-29T20:26:05.603Z,30.08
2023-01-29T20:28:39.786Z,20.33
2023-01-29T20:31:07.962Z,28.40
2023-01-29T20:33:38.207Z,24.42
2023-01-29T20:36:13.709Z,25.83
2023-01-29T20:38:40.964Z,18.27
2023-01-29T20:41:16.936Z,29.90
2023-01-29T20:43:44.908Z,30.40
2023-01-29T20:46:12.550Z,29.60
2023-01-29T20:48:46.876Z,23.27
2023-01-29T20:51:15.635Z,17.40
2023-01-29T20:53:45.062Z,14.90
2023-01-29T20:56:20.596Z,19.42
2023-01-29T20:59:02.964Z,9.73
2023-01-29T21:01:36.834Z,17.95
2023-01-29T21:04:10.598Z,17.48
2023-01-29T21:06:44.863Z,12.05
2023-01-29T21:09:12.005Z,10.50
2023-01-29T21:11:39.086Z,11.55
2023-01-29T21:14:12.737Z,6.28
2023-01-29T21:16:40.092Z,10.30
2023-01-29T21:19:13.787Z,8.57
2023-01-29T21:21:40.932Z,5.93
2023-01-29T21:24:09.237Z,7.25
2023-01-29T21:26:45.782Z,7.68
2023-01-29T21:29:13.297Z,4.68
2023-01-29T21:34:14.301Z,2.38
2023-01-29T21:36:41.405Z,2.17
2023-01-29T21:39:24.801Z,6.75
2023-01-29T21:42:11.048Z,3.20
2023-01-29T21:44:44.824Z,5.97
2023-01-29T21:47:14.916Z,4.53
2023-01-29T21:49:43.145Z,7.43
2023-01-29T21:52:17.806Z,5.97
2023-01-29T21:54:48.718Z,2.80
2023-01-29T21:57:22.709Z,3.40
2023-01-29T21:59:51.156Z,3.20
2023-01-29T22:02:20.752Z,3.05
2023-01-29T22:07:23.022Z,6.80
2023-01-29T22:09:56.688Z,5.13
2023-01-29T22:12:23.955Z,2.03
2023-01-29T22:14:57.956Z,4.00
2023-01-29T22:17:25.128Z,5.38
2023-01-29T22:19:53.454Z,3.15
2023-01-29T22:22:27.692Z,6.68
2023-01-29T22:24:56.433Z,4.75
2023-01-29T22:27:30.836Z,5.25
2023-01-29T22:29:58.082Z,3.28
2023-01-29T22:32:25.244Z,4.45
2023-01-29T22:34:58.729Z,3.08
2023-01-29T22:37:25.988Z,4.13
2023-01-29T22:39:59.792Z,6.28
2023-01-29T22:42:27.818Z,5.68
2023-01-29T22:44:55.091Z,7.55
2023-01-29T22:47:28.714Z,5.25
2023-01-29T22:49:55.804Z,3.92
2023-01-29T22:52:29.676Z,6.90
2023-01-29T22:54:56.834Z,7.30
2023-01-29T22:57:30.776Z,8.40
2023-01-29T22:59:57.987Z,8.60
2023-01-29T23:02:31.743Z,8.80
2023-01-29T23:04:58.882Z,14.48
2023-01-29T23:07:26.004Z,18.17
2023-01-29T23:09:59.756Z,15.20
2023-01-29T23:12:26.946Z,22.90
2023-01-29T23:15:00.823Z,16.92
2023-01-29T23:17:28.341Z,18.48
2023-01-29T23:22:28.777Z,32.83
2023-01-29T23:24:56.408Z,33.85
2023-01-29T23:27:29.796Z,41.22
2023-01-29T23:29:56.932Z,37.15
2023-01-29T23:32:30.799Z,50.08
2023-01-29T23:34:58.000Z,41.75
2023-01-29T23:37:25.333Z,40.75
2023-01-29T23:39:58.823Z,51.08
2023-01-29T23:42:26.077Z,58.95
2023-01-29T23:44:59.809Z,48.90
2023-01-29T23:47:26.934Z,58.35
2023-01-29T23:49:54.083Z,45.80
2023-01-29T23:52:27.724Z,51.05
2023-01-29T23:54:54.809Z,55.50
2023-01-29T23:57:28.833Z,58.00
2023-01-29T23:59:55.942Z,55.08
